sensor_id;sensor_type;location;lat;lon;timestamp;P1;durP1;ratioP1;P2;durP2;ratioP2
62256;SDS011;48240;52.962;5.790;2022-10-31T04:58:16;3.92;;;2.65;;
62256;SDS011;48240;52.962;5.790;2022-10-31T05:00:42;4.05;;;2.85;;
62256;SDS011;48240;52.962;5.790;2022-10-31T05:03:08;6.32;;;2.78;;
62256;SDS011;48240;52.962;5.790;2022-10-31T05:05:34;4.85;;;2.67;;
62256;SDS011;48240;52.962;5.790;2022-10-31T05:08:00;7.25;;;2.88;;
62256;SDS011;48240;52.962;5.790;2022-10-31T05:10:28;5.00;;;3.03;;
62256;SDS011;48240;52.962;5.790;2022-10-31T05:12:55;4.35;;;3.25;;
62256;SDS011;48240;52.962;5.790;2022-10-31T05:15:22;3.88;;;2.60;;
62256;SDS011;48240;52.962;5.790;2022-10-31T05:17:49;5.20;;;2.67;;
62256;SDS011;48240;52.962;5.790;2022-10-31T05:20:15;6.38;;;3.42;;
62256;SDS011;48240;52.962;5.790;2022-10-31T05:22:46;4.15;;;3.22;;
62256;SDS011;48240;52.962;5.790;2022-10-31T05:25:12;3.33;;;2.70;;
62256;SDS011;48240;52.962;5.790;2022-10-31T05:27:39;3.55;;;2.50;;
62256;SDS011;48240;52.962;5.790;2022-10-31T05:30:06;4.53;;;2.80;;
62256;SDS011;48240;52.962;5.790;2022-10-31T05:33:05;3.67;;;2.58;;
62256;SDS011;48240;52.962;5.790;2022-10-31T05:35:25;5.05;;;3.08;;
62256;SDS011;48240;52.962;5.790;2022-10-31T05:37:52;3.95;;;3.17;;
62256;SDS011;48240;52.962;5.790;2022-10-31T05:40:18;4.75;;;3.10;;
62256;SDS011;48240;52.962;5.790;2022-10-31T05:42:45;5.05;;;3.10;;
62256;SDS011;48240;52.962;5.790;2022-10-31T05:45:12;3.88;;;2.67;;
62256;SDS011;48240;52.962;5.790;2022-10-31T05:47:39;4.47;;;2.85;;
62256;SDS011;48240;52.962;5.790;2022-10-31T05:50:05;4.65;;;3.15;;
62256;SDS011;48240;52.962;5.790;2022-10-31T05:52:32;5.10;;;3.40;;
62256;SDS011;48240;52.962;5.790;2022-10-31T05:54:58;3.90;;;2.90;;
62256;SDS011;48240;52.962;5.790;2022-10-31T05:57:24;5.97;;;3.53;;
62256;SDS011;48240;52.962;5.790;2022-10-31T05:59:50;5.15;;;3.30;;
62256;SDS011;48240;52.962;5.790;2022-10-31T06:02:20;4.35;;;3.20;;
62256;SDS011;48240;52.962;5.790;2022-10-31T06:04:46;5.35;;;2.85;;
62256;SDS011;48240;52.962;5.790;2022-10-31T06:07:12;5.53;;;3.25;;
62256;SDS011;48240;52.962;5.790;2022-10-31T06:09:39;4.18;;;2.72;;
62256;SDS011;48240;52.962;5.790;2022-10-31T06:12:05;5.18;;;2.90;;
62256;SDS011;48240;52.962;5.790;2022-10-31T06:14:31;4.82;;;2.97;;
62256;SDS011;48240;52.962;5.790;2022-10-31T06:16:57;4.00;;;2.80;;
62256;SDS011;48240;52.962;5.790;2022-10-31T06:19:23;5.45;;;3.00;;
62256;SDS011;48240;52.962;5.790;2022-10-31T06:21:49;4.30;;;2.90;;
62256;SDS011;48240;52.962;5.790;2022-10-31T06:24:15;3.90;;;2.67;;
62256;SDS011;48240;52.962;5.790;2022-10-31T06:26:41;5.15;;;3.08;;
62256;SDS011;48240;52.962;5.790;2022-10-31T06:29:07;5.30;;;2.80;;
62256;SDS011;48240;52.962;5.790;2022-10-31T06:31:33;4.50;;;2.60;;
62256;SDS011;48240;52.962;5.790;2022-10-31T06:33:59;3.47;;;2.60;;
62256;SDS011;48240;52.962;5.790;2022-10-31T06:36:25;5.55;;;3.67;;
62256;SDS011;48240;52.962;5.790;2022-10-31T06:38:51;3.75;;;2.63;;
62256;SDS011;48240;52.962;5.790;2022-10-31T06:41:17;4.45;;;2.50;;
62256;SDS011;48240;52.962;5.790;2022-10-31T06:43:45;4.85;;;2.97;;
62256;SDS011;48240;52.962;5.790;2022-10-31T06:46:12;5.95;;;2.72;;
62256;SDS011;48240;52.962;5.790;2022-10-31T06:48:39;5.47;;;2.53;;
62256;SDS011;48240;52.962;5.790;2022-10-31T06:51:06;4.20;;;2.65;;
62256;SDS011;48240;52.962;5.790;2022-10-31T06:53:32;4.70;;;2.85;;
62256;SDS011;48240;52.962;5.790;2022-10-31T06:55:58;4.22;;;2.50;;
62256;SDS011;48240;52.962;5.790;2022-10-31T06:58:25;4.20;;;2.65;;
62256;SDS011;48240;52.962;5.790;2022-10-31T07:00:51;7.22;;;2.50;;
62256;SDS011;48240;52.962;5.790;2022-10-31T07:03:17;5.68;;;2.60;;
62256;SDS011;48240;52.962;5.790;2022-10-31T07:05:45;5.03;;;3.22;;
62256;SDS011;48240;52.962;5.790;2022-10-31T07:08:11;5.03;;;3.13;;
62256;SDS011;48240;52.962;5.790;2022-10-31T07:10:38;7.07;;;2.80;;
62256;SDS011;48240;52.962;5.790;2022-10-31T07:13:05;5.10;;;3.03;;
62256;SDS011;48240;52.962;5.790;2022-10-31T07:15:35;5.65;;;2.58;;
62256;SDS011;48240;52.962;5.790;2022-10-31T07:18:02;5.47;;;2.70;;
62256;SDS011;48240;52.962;5.790;2022-10-31T07:20:29;9.90;;;3.00;;
62256;SDS011;48240;52.962;5.790;2022-10-31T07:22:55;4.20;;;2.80;;
62256;SDS011;48240;52.962;5.790;2022-10-31T07:25:21;5.03;;;2.95;;
62256;SDS011;48240;52.962;5.790;2022-10-31T07:27:48;4.88;;;2.65;;
62256;SDS011;48240;52.962;5.790;2022-10-31T07:30:14;7.93;;;3.05;;
62256;SDS011;48240;52.962;5.790;2022-10-31T07:32:44;4.80;;;2.58;;
62256;SDS011;48240;52.962;5.790;2022-10-31T07:35:20;5.35;;;2.35;;
62256;SDS011;48240;52.962;5.790;2022-10-31T07:37:47;7.20;;;2.55;;
62256;SDS011;48240;52.962;5.790;2022-10-31T07:40:13;4.13;;;2.78;;
62256;SDS011;48240;52.962;5.790;2022-10-31T07:42:43;3.85;;;2.70;;
62256;SDS011;48240;52.962;5.790;2022-10-31T07:45:10;3.75;;;2.55;;
62256;SDS011;48240;52.962;5.790;2022-10-31T07:47:40;3.85;;;2.58;;
62256;SDS011;48240;52.962;5.790;2022-10-31T07:50:07;4.53;;;2.78;;
62256;SDS011;48240;52.962;5.790;2022-10-31T07:52:33;4.38;;;2.53;;
62256;SDS011;48240;52.962;5.790;2022-10-31T07:54:59;7.10;;;2.80;;
62256;SDS011;48240;52.962;5.790;2022-10-31T07:57:25;3.40;;;2.70;;
62256;SDS011;48240;52.962;5.790;2022-10-31T07:59:51;3.33;;;2.28;;
62256;SDS011;48240;52.962;5.790;2022-10-31T08:02:17;5.07;;;3.13;;
62256;SDS011;48240;52.962;5.790;2022-10-31T08:04:43;3.72;;;2.65;;
62256;SDS011;48240;52.962;5.790;2022-10-31T08:07:09;4.72;;;2.60;;
62256;SDS011;48240;52.962;5.790;2022-10-31T08:09:35;3.42;;;2.40;;
62256;SDS011;48240;52.962;5.790;2022-10-31T08:12:02;4.38;;;2.10;;
62256;SDS011;48240;52.962;5.790;2022-10-31T08:14:28;3.17;;;2.35;;
62256;SDS011;48240;52.962;5.790;2022-10-31T08:16:54;3.33;;;2.75;;
62256;SDS011;48240;52.962;5.790;2022-10-31T08:19:20;4.03;;;2.40;;
62256;SDS011;48240;52.962;5.790;2022-10-31T08:21:46;6.57;;;3.53;;
62256;SDS011;48240;52.962;5.790;2022-10-31T08:24:12;5.25;;;2.55;;
62256;SDS011;48240;52.962;5.790;2022-10-31T08:26:38;6.13;;;3.50;;
62256;SDS011;48240;52.962;5.790;2022-10-31T08:29:04;3.53;;;2.40;;
62256;SDS011;48240;52.962;5.790;2022-10-31T08:31:30;3.70;;;2.80;;
62256;SDS011;48240;52.962;5.790;2022-10-31T08:33:56;4.57;;;2.30;;
62256;SDS011;48240;52.962;5.790;2022-10-31T08:36:22;6.22;;;2.67;;
62256;SDS011;48240;52.962;5.790;2022-10-31T08:38:48;3.75;;;2.70;;
62256;SDS011;48240;52.962;5.790;2022-10-31T08:41:14;3.53;;;2.00;;
62256;SDS011;48240;52.962;5.790;2022-10-31T08:43:41;3.20;;;2.05;;
62256;SDS011;48240;52.962;5.790;2022-10-31T08:46:07;2.20;;;2.00;;
62256;SDS011;48240;52.962;5.790;2022-10-31T08:48:33;3.15;;;2.33;;
62256;SDS011;48240;52.962;5.790;2022-10-31T08:50:59;4.47;;;3.10;;
62256;SDS011;48240;52.962;5.790;2022-10-31T08:53:25;3.38;;;2.30;;
62256;SDS011;48240;52.962;5.790;2022-10-31T08:55:53;3.85;;;2.15;;
62256;SDS011;48240;52.962;5.790;2022-10-31T08:58:20;14.75;;;2.67;;
62256;SDS011;48240;52.962;5.790;2022-10-31T09:00:47;16.55;;;11.15;;
62256;SDS011;48240;52.962;5.790;2022-10-31T09:05:45;19.40;;;11.82;;
62256;SDS011;48240;52.962;5.790;2022-10-31T09:08:12;17.33;;;11.40;;
62256;SDS011;48240;52.962;5.790;2022-10-31T09:10:38;17.65;;;11.25;;
62256;SDS011;48240;52.962;5.790;2022-10-31T09:13:05;17.63;;;12.13;;
62256;SDS011;48240;52.962;5.790;2022-10-31T09:15:32;17.90;;;11.95;;
62256;SDS011;48240;52.962;5.790;2022-10-31T09:17:58;20.48;;;12.35;;
62256;SDS011;48240;52.962;5.790;2022-10-31T09:20:26;20.20;;;13.27;;
62256;SDS011;48240;52.962;5.790;2022-10-31T09:22:55;20.00;;;13.25;;
62256;SDS011;48240;52.962;5.790;2022-10-31T09:25:22;24.05;;;12.18;;
62256;SDS011;48240;52.962;5.790;2022-10-31T09:27:48;20.70;;;13.10;;
62256;SDS011;48240;52.962;5.790;2022-10-31T09:30:14;21.98;;;12.13;;
62256;SDS011;48240;52.962;5.790;2022-10-31T09:32:40;22.13;;;12.10;;
62256;SDS011;48240;52.962;5.790;2022-10-31T09:35:06;16.45;;;9.77;;
62256;SDS011;48240;52.962;5.790;2022-10-31T09:37:33;16.60;;;9.52;;
62256;SDS011;48240;52.962;5.790;2022-10-31T09:39:59;14.85;;;8.65;;
62256;SDS011;48240;52.962;5.790;2022-10-31T09:45:01;13.52;;;8.25;;
62256;SDS011;48240;52.962;5.790;2022-10-31T09:47:37;16.38;;;8.00;;
62256;SDS011;48240;52.962;5.790;2022-10-31T09:50:19;11.07;;;6.80;;
62256;SDS011;48240;52.962;5.790;2022-10-31T09:53:09;17.33;;;7.15;;
62256;SDS011;48240;52.962;5.790;2022-10-31T09:55:40;13.52;;;6.38;;
62256;SDS011;48240;52.962;5.790;2022-10-31T09:58:28;10.05;;;5.90;;
62256;SDS011;48240;52.962;5.790;2022-10-31T10:00:54;12.02;;;5.85;;
62256;SDS011;48240;52.962;5.790;2022-10-31T10:06:11;10.57;;;5.57;;
62256;SDS011;48240;52.962;5.790;2022-10-31T10:08:39;9.70;;;5.30;;
62256;SDS011;48240;52.962;5.790;2022-10-31T10:27:16;6.68;;;3.40;;
62256;SDS011;48240;52.962;5.790;2022-10-31T10:32:15;7.57;;;3.53;;
62256;SDS011;48240;52.962;5.790;2022-10-31T10:34:45;5.00;;;2.83;;
62256;SDS011;48240;52.962;5.790;2022-10-31T10:39:46;5.40;;;2.85;;
62256;SDS011;48240;52.962;5.790;2022-10-31T10:42:13;6.53;;;3.00;;
62256;SDS011;48240;52.962;5.790;2022-10-31T10:44:58;7.15;;;3.17;;
62256;SDS011;48240;52.962;5.790;2022-10-31T10:47:44;5.38;;;2.80;;
62256;SDS011;48240;52.962;5.790;2022-10-31T10:50:14;4.82;;;3.10;;
62256;SDS011;48240;52.962;5.790;2022-10-31T10:55:24;6.18;;;3.08;;
62256;SDS011;48240;52.962;5.790;2022-10-31T10:58:03;5.65;;;2.60;;
62256;SDS011;48240;52.962;5.790;2022-10-31T11:00:39;4.40;;;2.60;;
62256;SDS011;48240;52.962;5.790;2022-10-31T11:03:06;5.70;;;2.80;;
62256;SDS011;48240;52.962;5.790;2022-10-31T11:05:43;4.10;;;2.90;;
62256;SDS011;48240;52.962;5.790;2022-10-31T11:08:11;5.15;;;3.13;;
62256;SDS011;48240;52.962;5.790;2022-10-31T11:10:37;7.70;;;2.72;;
62256;SDS011;48240;52.962;5.790;2022-10-31T11:13:17;4.00;;;2.60;;
62256;SDS011;48240;52.962;5.790;2022-10-31T11:15:50;8.23;;;2.78;;
62256;SDS011;48240;52.962;5.790;2022-10-31T11:18:21;4.30;;;2.85;;
62256;SDS011;48240;52.962;5.790;2022-10-31T11:20:53;6.80;;;2.75;;
62256;SDS011;48240;52.962;5.790;2022-10-31T11:23:19;4.60;;;2.67;;
62256;SDS011;48240;52.962;5.790;2022-10-31T11:25:50;6.60;;;3.05;;
62256;SDS011;48240;52.962;5.790;2022-10-31T11:28:16;5.10;;;3.60;;
62256;SDS011;48240;52.962;5.790;2022-10-31T11:31:05;5.00;;;2.70;;
62256;SDS011;48240;52.962;5.790;2022-10-31T11:35:57;4.45;;;3.00;;
62256;SDS011;48240;52.962;5.790;2022-10-31T11:38:26;5.93;;;2.80;;
62256;SDS011;48240;52.962;5.790;2022-10-31T11:40:59;4.13;;;2.38;;
62256;SDS011;48240;52.962;5.790;2022-10-31T11:43:28;5.00;;;3.03;;
62256;SDS011;48240;52.962;5.790;2022-10-31T11:45:55;4.13;;;2.83;;
62256;SDS011;48240;52.962;5.790;2022-10-31T11:48:22;5.55;;;3.25;;
62256;SDS011;48240;52.962;5.790;2022-10-31T11:50:53;6.05;;;2.75;;
62256;SDS011;48240;52.962;5.790;2022-10-31T11:53:28;7.95;;;3.55;;
62256;SDS011;48240;52.962;5.790;2022-10-31T11:56:05;7.57;;;3.10;;
62256;SDS011;48240;52.962;5.790;2022-10-31T11:58:32;5.88;;;3.22;;
62256;SDS011;48240;52.962;5.790;2022-10-31T12:00:58;6.38;;;3.10;;
62256;SDS011;48240;52.962;5.790;2022-10-31T12:06:14;5.63;;;2.65;;
62256;SDS011;48240;52.962;5.790;2022-10-31T12:08:41;4.22;;;2.95;;
62256;SDS011;48240;52.962;5.790;2022-10-31T12:14:21;6.30;;;3.28;;
62256;SDS011;48240;52.962;5.790;2022-10-31T12:21:50;11.30;;;3.60;;
62256;SDS011;48240;52.962;5.790;2022-10-31T12:29:39;8.18;;;2.67;;
62256;SDS011;48240;52.962;5.790;2022-10-31T12:35:19;9.02;;;3.70;;
62256;SDS011;48240;52.962;5.790;2022-10-31T12:37:47;10.05;;;3.60;;
62256;SDS011;48240;52.962;5.790;2022-10-31T12:58:30;5.60;;;2.65;;
62256;SDS011;48240;52.962;5.790;2022-10-31T13:01:02;6.43;;;2.80;;
62256;SDS011;48240;52.962;5.790;2022-10-31T13:05:56;5.95;;;2.88;;
62256;SDS011;48240;52.962;5.790;2022-10-31T13:08:33;3.78;;;2.47;;
62256;SDS011;48240;52.962;5.790;2022-10-31T13:13:34;5.78;;;2.65;;
62256;SDS011;48240;52.962;5.790;2022-10-31T13:18:35;5.95;;;2.70;;
62256;SDS011;48240;52.962;5.790;2022-10-31T13:21:05;6.32;;;2.83;;
62256;SDS011;48240;52.962;5.790;2022-10-31T13:23:34;5.10;;;2.70;;
62256;SDS011;48240;52.962;5.790;2022-10-31T13:26:12;4.30;;;2.40;;
62256;SDS011;48240;52.962;5.790;2022-10-31T13:31:04;4.82;;;2.50;;
62256;SDS011;48240;52.962;5.790;2022-10-31T13:33:45;4.22;;;3.00;;
62256;SDS011;48240;52.962;5.790;2022-10-31T13:48:56;4.25;;;2.40;;
62256;SDS011;48240;52.962;5.790;2022-10-31T13:51:27;5.28;;;2.83;;
62256;SDS011;48240;52.962;5.790;2022-10-31T13:56:21;3.05;;;2.17;;
62256;SDS011;48240;52.962;5.790;2022-10-31T13:59:04;3.42;;;2.35;;
62256;SDS011;48240;52.962;5.790;2022-10-31T14:01:31;4.78;;;2.60;;
62256;SDS011;48240;52.962;5.790;2022-10-31T14:03:59;3.10;;;2.13;;
62256;SDS011;48240;52.962;5.790;2022-10-31T14:06:45;4.88;;;2.33;;
62256;SDS011;48240;52.962;5.790;2022-10-31T14:11:48;3.78;;;2.25;;
62256;SDS011;48240;52.962;5.790;2022-10-31T14:14:14;3.80;;;2.15;;
62256;SDS011;48240;52.962;5.790;2022-10-31T14:16:42;4.10;;;2.45;;
62256;SDS011;48240;52.962;5.790;2022-10-31T14:19:18;4.10;;;2.42;;
62256;SDS011;48240;52.962;5.790;2022-10-31T14:21:46;2.80;;;2.08;;
62256;SDS011;48240;52.962;5.790;2022-10-31T14:24:13;3.58;;;2.65;;
62256;SDS011;48240;52.962;5.790;2022-10-31T14:26:50;5.97;;;2.50;;
62256;SDS011;48240;52.962;5.790;2022-10-31T14:31:51;2.70;;;2.20;;
62256;SDS011;48240;52.962;5.790;2022-10-31T14:52:22;3.90;;;2.00;;
62256;SDS011;48240;52.962;5.790;2022-10-31T14:54:50;4.22;;;2.17;;
62256;SDS011;48240;52.962;5.790;2022-10-31T14:59:50;3.38;;;2.15;;
62256;SDS011;48240;52.962;5.790;2022-10-31T15:04:50;3.65;;;2.10;;
62256;SDS011;48240;52.962;5.790;2022-10-31T15:07:23;4.70;;;2.20;;
62256;SDS011;48240;52.962;5.790;2022-10-31T15:09:59;3.42;;;2.08;;
62256;SDS011;48240;52.962;5.790;2022-10-31T15:12:27;4.30;;;2.25;;
62256;SDS011;48240;52.962;5.790;2022-10-31T15:14:53;4.38;;;2.10;;
62256;SDS011;48240;52.962;5.790;2022-10-31T15:17:20;4.35;;;2.08;;
62256;SDS011;48240;52.962;5.790;2022-10-31T15:19:47;3.00;;;2.13;;
62256;SDS011;48240;52.962;5.790;2022-10-31T15:22:15;2.70;;;2.10;;
62256;SDS011;48240;52.962;5.790;2022-10-31T15:24:42;4.20;;;2.00;;
62256;SDS011;48240;52.962;5.790;2022-10-31T15:27:15;5.65;;;2.38;;
62256;SDS011;48240;52.962;5.790;2022-10-31T15:29:54;4.97;;;2.20;;
62256;SDS011;48240;52.962;5.790;2022-10-31T15:32:22;3.97;;;2.10;;
62256;SDS011;48240;52.962;5.790;2022-10-31T15:34:48;4.22;;;1.83;;
62256;SDS011;48240;52.962;5.790;2022-10-31T15:37:16;4.90;;;2.47;;
62256;SDS011;48240;52.962;5.790;2022-10-31T15:39:43;3.78;;;2.00;;
62256;SDS011;48240;52.962;5.790;2022-10-31T15:44:41;4.32;;;1.80;;
62256;SDS011;48240;52.962;5.790;2022-10-31T15:47:18;4.40;;;2.55;;
62256;SDS011;48240;52.962;5.790;2022-10-31T15:49:49;3.50;;;1.92;;
62256;SDS011;48240;52.962;5.790;2022-10-31T15:52:29;5.70;;;2.17;;
62256;SDS011;48240;52.962;5.790;2022-10-31T15:54:58;2.63;;;1.80;;
62256;SDS011;48240;52.962;5.790;2022-10-31T15:57:25;4.05;;;2.35;;
62256;SDS011;48240;52.962;5.790;2022-10-31T15:59:52;6.63;;;2.17;;
62256;SDS011;48240;52.962;5.790;2022-10-31T16:02:22;4.68;;;1.98;;
62256;SDS011;48240;52.962;5.790;2022-10-31T16:04:50;5.18;;;2.35;;
62256;SDS011;48240;52.962;5.790;2022-10-31T16:07:18;4.53;;;2.20;;
62256;SDS011;48240;52.962;5.790;2022-10-31T16:12:20;5.47;;;2.70;;
62256;SDS011;48240;52.962;5.790;2022-10-31T16:14:46;3.97;;;1.98;;
62256;SDS011;48240;52.962;5.790;2022-10-31T16:17:13;6.75;;;2.20;;
62256;SDS011;48240;52.962;5.790;2022-10-31T16:22:13;4.25;;;2.30;;
62256;SDS011;48240;52.962;5.790;2022-10-31T16:27:17;12.80;;;3.60;;
62256;SDS011;48240;52.962;5.790;2022-10-31T16:29:46;6.65;;;3.15;;
62256;SDS011;48240;52.962;5.790;2022-10-31T16:34:58;10.48;;;4.22;;
62256;SDS011;48240;52.962;5.790;2022-10-31T16:37:25;13.70;;;4.82;;
62256;SDS011;48240;52.962;5.790;2022-10-31T16:39:51;14.30;;;4.95;;
62256;SDS011;48240;52.962;5.790;2022-10-31T16:42:17;12.65;;;4.32;;
62256;SDS011;48240;52.962;5.790;2022-10-31T16:44:43;12.70;;;4.50;;
62256;SDS011;48240;52.962;5.790;2022-10-31T16:47:13;13.68;;;4.40;;
62256;SDS011;48240;52.962;5.790;2022-10-31T16:49:40;14.10;;;4.87;;
62256;SDS011;48240;52.962;5.790;2022-10-31T16:52:06;12.45;;;4.63;;
62256;SDS011;48240;52.962;5.790;2022-10-31T16:54:32;11.25;;;4.78;;
62256;SDS011;48240;52.962;5.790;2022-10-31T16:56:59;12.77;;;4.63;;
62256;SDS011;48240;52.962;5.790;2022-10-31T16:59:25;14.35;;;5.32;;
62256;SDS011;48240;52.962;5.790;2022-10-31T17:01:52;16.33;;;4.90;;
62256;SDS011;48240;52.962;5.790;2022-10-31T17:04:18;13.50;;;5.15;;
62256;SDS011;48240;52.962;5.790;2022-10-31T17:06:44;14.93;;;4.68;;
62256;SDS011;48240;52.962;5.790;2022-10-31T17:09:10;16.50;;;5.60;;
62256;SDS011;48240;52.962;5.790;2022-10-31T17:11:36;18.13;;;7.00;;
62256;SDS011;48240;52.962;5.790;2022-10-31T17:14:05;39.00;;;10.57;;
62256;SDS011;48240;52.962;5.790;2022-10-31T17:16:31;22.70;;;8.95;;
62256;SDS011;48240;52.962;5.790;2022-10-31T17:18:57;38.63;;;13.77;;
62256;SDS011;48240;52.962;5.790;2022-10-31T17:21:23;33.90;;;15.90;;
62256;SDS011;48240;52.962;5.790;2022-10-31T17:23:52;31.33;;;14.55;;
62256;SDS011;48240;52.962;5.790;2022-10-31T17:26:18;28.67;;;13.55;;
62256;SDS011;48240;52.962;5.790;2022-10-31T17:28:44;28.92;;;13.88;;
62256;SDS011;48240;52.962;5.790;2022-10-31T17:31:19;26.52;;;12.50;;
62256;SDS011;48240;52.962;5.790;2022-10-31T17:33:46;27.23;;;11.32;;
62256;SDS011;48240;52.962;5.790;2022-10-31T17:36:12;21.33;;;10.82;;
62256;SDS011;48240;52.962;5.790;2022-10-31T17:38:39;24.35;;;10.40;;
62256;SDS011;48240;52.962;5.790;2022-10-31T17:41:05;24.10;;;10.35;;
62256;SDS011;48240;52.962;5.790;2022-10-31T17:43:31;19.63;;;10.20;;
62256;SDS011;48240;52.962;5.790;2022-10-31T17:45:58;20.63;;;9.75;;
62256;SDS011;48240;52.962;5.790;2022-10-31T17:48:24;24.52;;;10.75;;
62256;SDS011;48240;52.962;5.790;2022-10-31T17:50:50;21.83;;;10.05;;
62256;SDS011;48240;52.962;5.790;2022-10-31T17:53:16;21.10;;;9.95;;
62256;SDS011;48240;52.962;5.790;2022-10-31T17:55:43;21.55;;;9.82;;
62256;SDS011;48240;52.962;5.790;2022-10-31T17:58:09;25.48;;;9.25;;
62256;SDS011;48240;52.962;5.790;2022-10-31T18:00:38;22.15;;;9.15;;
62256;SDS011;48240;52.962;5.790;2022-10-31T18:03:05;19.98;;;8.73;;
62256;SDS011;48240;52.962;5.790;2022-10-31T18:05:31;18.90;;;8.98;;
62256;SDS011;48240;52.962;5.790;2022-10-31T18:07:57;18.33;;;8.70;;
62256;SDS011;48240;52.962;5.790;2022-10-31T18:10:24;22.88;;;8.68;;
62256;SDS011;48240;52.962;5.790;2022-10-31T18:12:50;19.25;;;8.35;;
62256;SDS011;48240;52.962;5.790;2022-10-31T18:15:16;18.95;;;8.70;;
62256;SDS011;48240;52.962;5.790;2022-10-31T18:17:43;21.08;;;8.30;;
62256;SDS011;48240;52.962;5.790;2022-10-31T18:20:10;23.52;;;7.75;;
62256;SDS011;48240;52.962;5.790;2022-10-31T18:22:36;22.75;;;8.07;;
62256;SDS011;48240;52.962;5.790;2022-10-31T18:25:03;17.65;;;8.50;;
62256;SDS011;48240;52.962;5.790;2022-10-31T18:27:29;17.90;;;8.40;;
62256;SDS011;48240;52.962;5.790;2022-10-31T18:29:56;13.90;;;7.28;;
62256;SDS011;48240;52.962;5.790;2022-10-31T18:32:23;13.30;;;7.75;;
62256;SDS011;48240;52.962;5.790;2022-10-31T18:34:49;28.40;;;8.77;;
62256;SDS011;48240;52.962;5.790;2022-10-31T18:37:15;17.33;;;7.60;;
62256;SDS011;48240;52.962;5.790;2022-10-31T18:39:41;18.38;;;7.78;;
62256;SDS011;48240;52.962;5.790;2022-10-31T18:42:07;16.33;;;7.35;;
62256;SDS011;48240;52.962;5.790;2022-10-31T18:44:33;17.02;;;7.80;;
62256;SDS011;48240;52.962;5.790;2022-10-31T18:46:59;13.93;;;6.90;;
62256;SDS011;48240;52.962;5.790;2022-10-31T18:49:25;13.65;;;7.03;;
62256;SDS011;48240;52.962;5.790;2022-10-31T18:51:56;20.23;;;7.35;;
62256;SDS011;48240;52.962;5.790;2022-10-31T18:54:23;14.55;;;7.20;;
62256;SDS011;48240;52.962;5.790;2022-10-31T18:56:49;16.58;;;7.07;;
62256;SDS011;48240;52.962;5.790;2022-10-31T18:59:15;17.77;;;7.13;;
62256;SDS011;48240;52.962;5.790;2022-10-31T19:01:41;13.60;;;6.65;;
62256;SDS011;48240;52.962;5.790;2022-10-31T19:04:08;14.18;;;7.10;;
62256;SDS011;48240;52.962;5.790;2022-10-31T19:06:35;13.80;;;7.13;;
62256;SDS011;48240;52.962;5.790;2022-10-31T19:09:03;16.83;;;7.35;;
62256;SDS011;48240;52.962;5.790;2022-10-31T19:11:30;14.40;;;7.80;;
62256;SDS011;48240;52.962;5.790;2022-10-31T19:13:57;10.98;;;7.38;;
62256;SDS011;48240;52.962;5.790;2022-10-31T19:16:23;12.40;;;6.75;;
62256;SDS011;48240;52.962;5.790;2022-10-31T19:18:52;13.85;;;7.00;;
62256;SDS011;48240;52.962;5.790;2022-10-31T19:21:18;13.30;;;6.47;;
62256;SDS011;48240;52.962;5.790;2022-10-31T19:23:44;15.85;;;7.35;;
62256;SDS011;48240;52.962;5.790;2022-10-31T19:26:11;12.80;;;6.53;;
62256;SDS011;48240;52.962;5.790;2022-10-31T19:28:38;12.98;;;7.05;;
62256;SDS011;48240;52.962;5.790;2022-10-31T19:31:04;12.05;;;6.93;;
62256;SDS011;48240;52.962;5.790;2022-10-31T19:33:31;16.17;;;7.40;;
62256;SDS011;48240;52.962;5.790;2022-10-31T19:35:58;10.52;;;6.60;;
62256;SDS011;48240;52.962;5.790;2022-10-31T19:38:24;12.98;;;7.07;;
62256;SDS011;48240;52.962;5.790;2022-10-31T19:41:04;12.45;;;7.40;;
62256;SDS011;48240;52.962;5.790;2022-10-31T19:43:30;15.35;;;7.65;;
62256;SDS011;48240;52.962;5.790;2022-10-31T19:45:57;14.88;;;7.90;;
62256;SDS011;48240;52.962;5.790;2022-10-31T19:48:24;11.48;;;7.47;;
62256;SDS011;48240;52.962;5.790;2022-10-31T19:50:51;13.70;;;7.72;;
62256;SDS011;48240;52.962;5.790;2022-10-31T19:53:17;11.27;;;6.63;;
62256;SDS011;48240;52.962;5.790;2022-10-31T19:55:44;17.70;;;6.80;;
62256;SDS011;48240;52.962;5.790;2022-10-31T19:58:10;14.63;;;6.85;;
62256;SDS011;48240;52.962;5.790;2022-10-31T20:00:36;10.98;;;6.70;;
62256;SDS011;48240;52.962;5.790;2022-10-31T20:03:03;13.77;;;6.80;;
62256;SDS011;48240;52.962;5.790;2022-10-31T20:05:29;10.35;;;6.90;;
62256;SDS011;48240;52.962;5.790;2022-10-31T20:07:55;13.85;;;7.22;;
62256;SDS011;48240;52.962;5.790;2022-10-31T20:10:22;12.65;;;7.25;;
62256;SDS011;48240;52.962;5.790;2022-10-31T20:12:49;12.63;;;7.38;;
62256;SDS011;48240;52.962;5.790;2022-10-31T20:15:15;14.45;;;7.90;;
62256;SDS011;48240;52.962;5.790;2022-10-31T20:17:41;14.70;;;7.68;;
62256;SDS011;48240;52.962;5.790;2022-10-31T20:20:07;17.75;;;7.53;;
62256;SDS011;48240;52.962;5.790;2022-10-31T20:22:34;14.75;;;8.02;;
62256;SDS011;48240;52.962;5.790;2022-10-31T20:25:00;18.13;;;9.20;;
62256;SDS011;48240;52.962;5.790;2022-10-31T20:27:27;17.05;;;8.45;;
62256;SDS011;48240;52.962;5.790;2022-10-31T20:29:53;22.38;;;8.80;;
62256;SDS011;48240;52.962;5.790;2022-10-31T20:32:19;16.77;;;8.32;;
62256;SDS011;48240;52.962;5.790;2022-10-31T20:34:45;13.52;;;8.15;;
62256;SDS011;48240;52.962;5.790;2022-10-31T20:37:11;15.68;;;8.25;;
62256;SDS011;48240;52.962;5.790;2022-10-31T20:39:37;16.80;;;8.77;;
62256;SDS011;48240;52.962;5.790;2022-10-31T20:42:04;16.30;;;8.63;;
62256;SDS011;48240;52.962;5.790;2022-10-31T20:44:30;17.52;;;8.02;;
62256;SDS011;48240;52.962;5.790;2022-10-31T20:46:56;16.23;;;8.55;;
62256;SDS011;48240;52.962;5.790;2022-10-31T20:49:23;16.08;;;8.27;;
62256;SDS011;48240;52.962;5.790;2022-10-31T20:51:49;13.38;;;8.13;;
62256;SDS011;48240;52.962;5.790;2022-10-31T20:54:15;14.88;;;8.60;;
62256;SDS011;48240;52.962;5.790;2022-10-31T20:56:43;16.88;;;8.30;;
62256;SDS011;48240;52.962;5.790;2022-10-31T20:59:09;14.75;;;7.60;;
62256;SDS011;48240;52.962;5.790;2022-10-31T21:01:36;15.38;;;8.52;;
62256;SDS011;48240;52.962;5.790;2022-10-31T21:04:03;16.77;;;7.85;;
62256;SDS011;48240;52.962;5.790;2022-10-31T21:06:30;17.65;;;8.55;;
62256;SDS011;48240;52.962;5.790;2022-10-31T21:08:56;20.73;;;8.43;;
62256;SDS011;48240;52.962;5.790;2022-10-31T21:11:24;15.68;;;7.97;;
62256;SDS011;48240;52.962;5.790;2022-10-31T21:13:51;14.70;;;7.75;;
62256;SDS011;48240;52.962;5.790;2022-10-31T21:16:18;17.17;;;8.85;;
62256;SDS011;48240;52.962;5.790;2022-10-31T21:18:45;14.07;;;8.40;;
62256;SDS011;48240;52.962;5.790;2022-10-31T21:21:13;16.67;;;7.68;;
62256;SDS011;48240;52.962;5.790;2022-10-31T21:23:39;12.90;;;7.60;;
62256;SDS011;48240;52.962;5.790;2022-10-31T21:26:06;14.07;;;7.80;;
62256;SDS011;48240;52.962;5.790;2022-10-31T21:28:33;14.30;;;8.00;;
62256;SDS011;48240;52.962;5.790;2022-10-31T21:30:59;12.27;;;7.15;;
62256;SDS011;48240;52.962;5.790;2022-10-31T21:33:25;15.15;;;7.32;;
62256;SDS011;48240;52.962;5.790;2022-10-31T21:35:51;14.68;;;7.70;;
62256;SDS011;48240;52.962;5.790;2022-10-31T21:38:17;14.55;;;7.68;;
62256;SDS011;48240;52.962;5.790;2022-10-31T21:40:43;13.90;;;7.80;;
62256;SDS011;48240;52.962;5.790;2022-10-31T21:43:09;12.40;;;8.05;;
62256;SDS011;48240;52.962;5.790;2022-10-31T21:45:36;13.05;;;7.70;;
62256;SDS011;48240;52.962;5.790;2022-10-31T21:48:02;13.30;;;7.90;;
62256;SDS011;48240;52.962;5.790;2022-10-31T21:50:28;12.02;;;7.45;;
62256;SDS011;48240;52.962;5.790;2022-10-31T21:52:55;13.45;;;8.23;;
62256;SDS011;48240;52.962;5.790;2022-10-31T21:55:21;13.48;;;7.40;;
62256;SDS011;48240;52.962;5.790;2022-10-31T21:57:47;12.50;;;7.38;;
62256;SDS011;48240;52.962;5.790;2022-10-31T22:00:13;13.18;;;7.47;;